Pagrindinis puslapis
METAR-TAF:

METAR-TAF

Oro uostai :

Orskas, Rusija

platuma: 51-04-18N, ilguma: 058-35-48E, Aukštis: 277 m

Dabartinis oras

Ataskaita buvo paskelbta 1 valandą ir 8 minutes, ne 16:00 UTC
Vėjas 8 kt iš Vakarų/Šiaurės Vakarų
Temperatūra 17°C
Drėgmė 72%
Slėgis 996 hPa
Matomumas 10 km arba daugiau
nėra debesų žemiau 1500 m ir nėra kamuolinių lietaus debesų

METAR: UWOR 091600Z 29004MPS CAVOK 17/12 Q0996 R25/CLRD65 NOSIG RMK QFE723/0965

Laikas: 22:08 (17:08 UTC)

Prognozė

Ataskaita buvo paskelbta 3 valandos ir 9 minutes, ne 13:59 UTC
Prognozė galioja nuo 09 metu 15 UTC su 09 metu 24 UTC
Vėjas 14 kt iš Vakarų su gūsio iki 27 kt
Matomumas 10 km arba daugiau
Su prošvaistėmis ne aukštis 1600 ft, Liūtiniai kamuoliniai debesys.
Laikinai
nuo 09 metu 15 UTC su 09 metu 24 UTC
Vėjas 17 kt iš Vakarų su gūsio iki 35 kt
Matomumas: 6000 m
Su prošvaistėmis ne aukštis 1300 ft, Liūtiniai kamuoliniai debesys.
perkūnija, lietus

TAF: UWOR 091359Z 0915/0924 28007G14MPS 9999 BKN016CB TX21/0915Z TN14/0923Z TEMPO 0915/0924 26009G18MPS 6000 -TSRA BKN013CB

Orai ataskaitas ir orų prognozės (METAR, TAF).

turimą stotys yra geltonos ir raudonos taškus žemėlapyje.

Perkelti pele per norėdami pamatyti stoties vardą.

Tada spustelėkite, norėdami matyti oro stebėjimo ir prognozės.

Norėdami pakeisti žemėlapį: spustelėkite ant žalios mygtukų su juodo kryžiaus žemyn,; žalią mygtuką su brūkšneliu, jei norite nutolinti; arba žalių rodyklių gretimoms žemėlapius.


METAR-TAF: